Time;durP1;ratioP1;P1;durP2;ratioP2;P2;SDS_P1;SDS_P2;PMS_P1;PMS_P2;Temp;Humidity;BMP_temperature;BMP_pressure;BME280_temperature;BME280_humidity;BME280_pressure;Samples;Min_cycle;Max_cycle;Signal;HPM_P1;HPM_P2
2022/12/20 00:01:25;;;;;;;10.90;6.57;;;7.40;61.50;;;5.97;63.50;101542.38;12260825;19;20025;-84
2022/12/20 00:05:27;;;;;;;13.20;6.53;;;7.40;61.40;;;5.97;63.68;101547.56;12258546;19;20010;-82
2022/12/20 00:09:29;;;;;;;9.95;6.38;;;7.60;61.60;;;5.97;63.76;101538.03;12261173;19;20021;-83
2022/12/20 00:13:32;;;;;;;12.77;7.38;;;7.40;61.50;;;5.98;63.53;101538.88;12257262;19;20015;-83
2022/12/20 00:17:34;;;;;;;11.50;6.85;;;7.40;61.50;;;5.98;63.57;101531.97;12256698;19;20018;-84
2022/12/20 00:21:37;;;;;;;11.65;7.45;;;7.40;61.60;;;6.01;63.79;101533.63;12258888;19;20011;-83
2022/12/20 00:25:38;;;;;;;11.85;7.72;;;7.40;61.70;;;5.99;63.53;101522.44;12254788;19;20017;-83
2022/12/20 00:29:40;;;;;;;12.65;7.72;;;7.40;62.00;;;5.98;63.84;101523.34;12256668;19;20018;-82
2022/12/20 00:33:46;;;;;;;9.80;6.60;;;7.40;62.10;;;5.99;63.75;101519.84;12255992;19;20035;-83
2022/12/20 00:37:48;;;;;;;9.70;6.15;;;7.40;61.80;;;6.02;63.77;101530.13;12252328;19;20023;-83
2022/12/20 00:41:50;;;;;;;11.50;6.78;;;7.40;61.60;;;5.80;63.77;101471.88;12254303;19;20010;-82
2022/12/20 00:45:52;;;;;;;10.65;6.63;;;7.50;61.70;;;5.98;63.68;101503.44;12253325;19;20023;-83
2022/12/20 00:49:54;;;;;;;9.18;6.22;;;7.50;61.90;;;6.05;63.66;101504.16;12250852;19;20014;-82
2022/12/20 00:53:56;;;;;;;8.48;5.93;;;7.50;61.80;;;6.08;63.63;101521.41;12251966;19;20019;-83
2022/12/20 00:57:58;;;;;;;10.98;7.18;;;7.70;61.90;;;6.01;63.65;101502.53;12254061;19;20018;-83
2022/12/20 01:01:59;;;;;;;11.57;6.80;;;7.70;62.00;;;5.82;63.65;101470.13;12254932;19;20361;-82
2022/12/20 01:06:02;;;;;;;8.48;6.60;;;7.60;61.90;;;6.08;63.85;101505.84;12252088;19;20095;-82
2022/12/20 01:10:04;;;;;;;11.43;6.95;;;7.50;61.80;;;6.11;63.77;101513.53;12255514;19;20074;-83
2022/12/20 01:14:12;;;;;;;10.55;5.78;;;7.50;62.00;;;6.11;63.87;101500.56;12255503;19;20018;-82
2022/12/20 01:18:14;;;;;;;9.27;6.20;;;7.50;61.80;;;6.14;63.72;101509.13;12251947;19;20365;-82
2022/12/20 01:22:16;;;;;;;8.65;6.50;;;7.50;61.80;;;6.03;63.42;101489.53;12253719;19;20015;-83
2022/12/20 01:26:22;;;;;;;9.68;6.18;;;7.80;62.10;;;6.07;63.63;101498.94;12283845;19;20014;-83
2022/12/20 01:30:24;;;;;;;9.95;6.70;;;7.60;61.80;;;6.17;63.89;101514.22;12280627;19;20022;-83
2022/12/20 01:34:26;;;;;;;9.52;6.22;;;7.60;61.90;;;6.10;63.99;101499.72;12279202;19;20021;-83
2022/12/20 01:38:28;;;;;;;9.68;5.85;;;7.60;61.80;;;6.23;63.96;101517.56;12272527;19;20022;-83
2022/12/20 01:42:30;;;;;;;8.20;5.85;;;7.60;61.80;;;6.18;63.73;101495.19;12271079;19;20414;-84
2022/12/20 01:46:35;;;;;;;9.60;6.22;;;7.60;61.80;;;6.23;63.84;101504.59;12268175;19;20021;-84
2022/12/20 01:50:37;;;;;;;6.50;4.57;;;7.80;61.90;;;6.19;63.90;101483.09;12269575;19;20444;-83
2022/12/20 01:55:11;;;;;;;11.98;7.63;;;7.70;61.80;;;6.18;63.80;101479.66;12320868;19;20363;-83
2022/12/20 01:59:14;;;;;;;8.77;6.28;;;7.70;62.40;;;6.22;63.79;101489.94;12318373;19;20011;-83
2022/12/20 02:03:16;;;;;;;9.40;6.22;;;7.70;62.10;;;6.26;64.08;101476.00;12318384;19;20038;-83
2022/12/20 02:07:23;;;;;;;10.80;7.15;;;7.70;62.10;;;6.15;63.81;101458.94;12320010;19;20396;-82
2022/12/20 02:12:10;;;;;;;11.43;7.13;;;7.70;62.20;;;6.31;63.77;101479.31;12312297;19;20014;-83
2022/12/20 02:16:21;;;;;;;11.02;6.57;;;7.70;62.30;;;6.26;63.88;101461.28;12311587;19;20027;-83
2022/12/20 02:21:05;;;;;;;8.02;5.30;;;7.70;62.30;;;6.36;63.84;101490.44;12308528;19;20025;-82
2022/12/20 02:25:35;;;;;;;7.25;5.32;;;7.70;62.30;;;6.36;63.95;101485.25;12313226;19;20017;-83
2022/12/20 02:30:06;;;;;;;10.52;6.88;;;7.80;62.10;;;6.38;63.71;101496.44;12314132;19;20014;-83
2022/12/20 02:34:11;;;;;;;7.80;5.00;;;7.80;62.20;;;6.42;63.86;101492.88;12311446;19;20031;-83
2022/12/20 02:38:43;;;;;;;7.87;5.77;;;7.80;61.80;;;6.32;63.90;101483.59;12312274;19;20876;-82
2022/12/20 02:42:47;;;;;;;8.27;5.25;;;7.80;62.60;;;6.12;64.01;101427.91;12310241;19;20026;-82
2022/12/20 02:46:51;;;;;;;8.45;5.75;;;7.80;61.70;;;6.34;63.75;101463.69;12309597;19;20025;-82
2022/12/20 02:50:57;;;;;;;9.18;5.60;;;7.80;61.60;;;6.30;63.77;101451.69;12308146;19;20040;-82
2022/12/20 02:55:00;;;;;;;12.40;6.93;;;7.80;61.60;;;6.31;63.98;101446.44;12308977;19;20042;-82
2022/12/20 02:59:12;;;;;;;9.35;6.30;;;7.80;61.90;;;6.29;63.81;101449.97;12304940;19;20014;-83
2022/12/20 03:03:21;;;;;;;8.82;5.80;;;7.80;61.80;;;6.07;63.92;101410.78;12290323;19;20018;-82
2022/12/20 03:07:23;;;;;;;7.90;5.30;;;7.70;61.80;;;6.30;63.76;101454.28;12257655;19;20098;-83
2022/12/20 03:11:25;;;;;;;7.30;4.85;;;8.00;61.60;;;6.14;63.82;101436.50;12257658;19;20022;-83
2022/12/20 03:15:27;;;;;;;9.68;5.75;;;7.90;61.30;;;6.11;63.80;101426.22;12257964;19;20021;-83
2022/12/20 03:19:32;;;;;;;7.60;4.80;;;7.60;61.00;;;5.90;63.82;101388.69;12254865;19;20014;-82
2022/12/20 03:23:34;;;;;;;7.18;4.47;;;7.60;61.20;;;6.17;63.88;101445.97;12254267;19;20036;-82
2022/12/20 03:27:36;;;;;;;7.80;4.72;;;7.50;61.00;;;6.11;63.81;101423.63;12254507;19;20010;-83
2022/12/20 03:31:38;;;;;;;6.82;4.80;;;7.50;61.00;;;6.11;63.83;101423.63;12254763;19;20027;-82
2022/12/20 03:35:40;;;;;;;8.25;6.15;;;7.50;61.20;;;5.97;63.77;101392.88;12254456;19;20380;-82
2022/12/20 03:39:44;;;;;;;9.50;5.70;;;7.50;61.70;;;5.88;63.93;101377.50;12257192;19;20014;-83
2022/12/20 03:43:47;;;;;;;6.32;4.85;;;7.50;61.80;;;6.04;63.83;101413.44;12255226;19;20468;-82
2022/12/20 03:47:50;;;;;;;7.32;5.25;;;7.50;61.70;;;6.03;63.97;101410.00;12251582;19;20501;-82
2022/12/20 03:51:52;;;;;;;10.07;6.72;;;7.50;61.70;;;6.15;63.93;101447.72;12253306;19;20018;-82
2022/12/20 03:55:54;;;;;;;8.27;5.70;;;7.50;61.80;;;6.17;63.72;101444.22;12254021;19;20006;-82
2022/12/20 03:59:56;;;;;;;6.60;4.78;;;7.70;62.00;;;6.16;63.81;101452.88;12254120;19;20010;-82
2022/12/20 04:03:58;;;;;;;7.90;5.43;;;7.70;61.90;;;6.15;63.92;101451.16;12253377;19;20393;-83
2022/12/20 04:08:00;;;;;;;9.95;6.22;;;7.50;61.80;;;6.02;63.80;101421.25;12251200;19;20676;-82
2022/12/20 04:12:03;;;;;;;7.43;5.45;;;7.50;62.00;;;6.09;63.91;101427.16;12251036;19;20038;-82
2022/12/20 04:16:06;;;;;;;7.20;5.05;;;7.50;61.80;;;6.09;63.96;101433.19;12248215;19;20035;-82
2022/12/20 04:20:19;;;;;;;7.63;5.28;;;7.50;61.80;;;6.13;64.02;101432.22;12253026;19;20017;-82
2022/12/20 04:24:28;;;;;;;8.13;5.30;;;7.50;61.90;;;6.13;63.77;101421.84;12247985;19;20022;-82
2022/12/20 04:28:50;;;;;;;6.10;4.60;;;7.50;61.80;;;6.13;64.04;101427.03;12249398;19;20011;-82
2022/12/20 04:32:53;;;;;;;9.32;5.22;;;7.60;62.10;;;5.92;63.93;101386.91;12248271;19;20014;-81
2022/12/20 04:36:55;;;;;;;8.02;5.60;;;7.50;62.30;;;6.16;64.09;101424.38;12248084;19;20493;-82
2022/12/20 04:41:08;;;;;;;9.13;6.20;;;7.50;62.50;;;6.19;63.89;101407.88;12248462;19;20014;-82
2022/12/20 04:45:20;;;;;;;9.38;6.05;;;7.60;62.40;;;6.17;64.01;101410.50;12248507;19;20453;-82
2022/12/20 04:49:23;;;;;;;10.30;6.13;;;7.60;62.30;;;6.16;63.81;101408.81;12258314;19;20026;-83
2022/12/20 04:57:46;;;;;;;7.43;5.15;;;7.50;62.10;;;6.12;63.90;101425.31;12279428;19;20013;-83
2022/12/20 05:01:49;;;;;;;7.63;5.25;;;7.50;61.90;;;6.12;63.93;101412.34;12271540;19;20010;-83
2022/12/20 05:06:04;;;;;;;6.05;5.07;;;7.50;61.90;;;6.10;63.85;101411.56;12266799;19;20018;-84
2022/12/20 05:10:08;;;;;;;7.67;5.13;;;7.50;61.70;;;6.05;64.01;101404.78;12265540;19;20014;-83
2022/12/20 05:14:10;;;;;;;6.40;4.35;;;7.50;61.60;;;5.89;63.90;101397.38;12261652;19;20748;-83
2022/12/20 05:18:12;;;;;;;7.28;4.80;;;7.40;61.50;;;5.89;63.74;101393.94;12263192;19;20022;-83
2022/12/20 05:26:47;;;;;;;5.72;4.45;;;7.40;61.10;;;5.91;63.77;101394.72;12261906;19;20465;-83
2022/12/20 05:30:50;;;;;;;5.15;3.88;;;7.40;60.90;;;5.78;63.96;101381.25;12260974;19;20117;-83
2022/12/20 05:34:51;;;;;;;4.63;3.67;;;7.30;60.80;;;5.79;64.03;101395.88;12256053;19;20039;-84
2022/12/20 05:38:54;;;;;;;6.43;4.45;;;7.20;60.90;;;5.85;63.78;101402.66;12254736;19;20075;-83
2022/12/20 05:42:57;;;;;;;5.53;3.85;;;7.20;60.90;;;5.81;63.64;101398.44;12252147;19;20010;-83
2022/12/20 05:47:08;;;;;;;6.30;3.80;;;7.20;60.70;;;5.79;63.84;101403.66;12252284;19;20495;-83
2022/12/20 05:51:12;;;;;;;6.28;4.03;;;7.20;60.40;;;5.51;63.75;101356.84;12257847;19;20018;-83
2022/12/20 05:55:47;;;;;;;4.15;3.30;;;7.20;60.40;;;5.66;63.69;101379.78;12258295;19;20369;-83
2022/12/20 05:59:49;;;;;;;9.80;4.45;;;7.10;60.30;;;5.70;63.92;101391.78;12255345;19;20606;-82
2022/12/20 06:03:55;;;;;;;6.22;4.20;;;7.10;60.40;;;5.63;63.79;101382.44;12255787;19;20022;-83
2022/12/20 06:07:57;;;;;;;8.77;4.75;;;7.10;60.50;;;5.66;63.82;101392.72;12252778;19;20022;-82
2022/12/20 06:12:00;;;;;;;5.75;4.35;;;7.00;60.20;;;5.45;63.70;101351.78;12251454;19;20022;-83
2022/12/20 06:16:03;;;;;;;6.22;3.90;;;7.00;60.40;;;5.62;63.73;101391.13;12250363;19;20646;-82
2022/12/20 06:20:08;;;;;;;6.93;4.53;;;7.00;60.50;;;5.51;63.88;101362.88;12251402;19;20023;-83
2022/12/20 06:24:10;;;;;;;6.15;4.03;;;6.90;60.60;;;5.57;63.69;101392.97;12250037;19;20304;-83
2022/12/20 06:28:20;;;;;;;6.70;4.72;;;6.90;60.90;;;5.57;63.79;101387.78;12247067;19;20014;-83
2022/12/20 06:32:23;;;;;;;7.13;4.53;;;6.90;61.20;;;5.58;63.85;101397.25;12249492;19;20015;-82
2022/12/20 06:36:26;;;;;;;7.43;4.65;;;6.90;61.50;;;5.55;64.00;101397.31;12247783;19;20011;-83
2022/12/20 06:40:28;;;;;;;7.75;4.07;;;6.90;61.70;;;5.57;63.78;101408.50;12260937;19;20118;-82
2022/12/20 06:44:34;;;;;;;7.47;4.45;;;6.90;61.60;;;5.47;64.02;101401.84;12259458;19;20027;-82
2022/12/20 06:48:36;;;;;;;6.65;4.35;;;6.90;61.70;;;5.53;63.86;101406.84;12256945;19;20014;-83
2022/12/20 06:52:42;;;;;;;8.35;5.47;;;7.00;62.00;;;5.60;63.78;101413.63;12259023;19;20023;-82
2022/12/20 06:56:44;;;;;;;6.55;4.63;;;6.90;61.90;;;5.61;63.85;101419.63;12261527;19;20011;-83
2022/12/20 07:00:47;;;;;;;7.10;4.90;;;7.00;62.40;;;5.58;64.07;101410.19;12259575;19;20022;-82
2022/12/20 07:04:49;;;;;;;6.50;4.57;;;7.00;62.20;;;5.59;63.93;101414.50;12258537;19;20013;-82
2022/12/20 07:08:51;;;;;;;7.32;3.97;;;7.10;62.20;;;5.53;64.19;101412.03;12256042;19;20727;-83
2022/12/20 07:12:53;;;;;;;8.80;4.97;;;7.00;62.20;;;5.65;64.06;101416.09;12257122;19;20018;-83
2022/12/20 07:16:55;;;;;;;6.15;3.88;;;7.00;62.50;;;5.71;64.05;101419.38;12256544;19;20042;-82
2022/12/20 07:21:02;;;;;;;7.30;4.70;;;7.10;62.60;;;5.62;64.21;101398.88;12259633;19;20086;-82
2022/12/20 07:25:05;;;;;;;5.75;4.45;;;7.10;62.70;;;5.70;64.19;101396.13;12255189;19;20396;-83
2022/12/20 07:29:07;;;;;;;5.65;4.13;;;7.20;62.80;;;5.78;64.34;101409.75;12253686;19;20014;-82
2022/12/20 07:33:09;;;;;;;7.10;4.13;;;7.20;63.00;;;5.85;64.27;101418.22;12251244;19;20023;-82
2022/12/20 07:37:11;;;;;;;5.63;3.95;;;7.20;63.10;;;5.87;64.16;101422.47;12256829;19;20010;-82
2022/12/20 07:41:15;;;;;;;5.60;4.05;;;7.20;63.10;;;5.82;64.27;101402.72;12254629;19;20014;-82
2022/12/20 07:45:17;;;;;;;5.10;3.58;;;7.30;63.30;;;5.77;64.25;101395.06;12262699;19;20011;-82
2022/12/20 07:49:19;;;;;;;5.53;3.75;;;7.30;63.10;;;5.74;64.32;101387.38;12248675;19;20022;-82
2022/12/20 07:53:23;;;;;;;5.68;3.88;;;7.40;63.00;;;5.92;64.26;101407.66;12252242;19;20030;-82
2022/12/20 07:57:36;;;;;;;5.05;4.10;;;7.40;63.10;;;5.96;64.18;101416.22;12250343;19;20051;-85
2022/12/20 08:01:41;;;;;;;7.63;4.10;;;7.40;63.20;;;6.06;64.28;101420.31;12251333;19;20051;-81
2022/12/20 08:05:50;;;;;;;7.45;5.13;;;7.50;63.40;;;6.04;64.35;101408.25;12250983;19;20031;-82
2022/12/20 08:09:52;;;;;;;10.00;6.47;;;7.50;63.50;;;6.15;64.46;101412.28;12251092;19;20037;-82
2022/12/20 08:13:54;;;;;;;5.55;4.68;;;7.60;64.10;;;6.26;64.62;101424.97;12250239;19;20018;-82
2022/12/20 08:17:56;;;;;;;6.75;5.20;;;7.70;64.00;;;6.24;64.48;101412.94;12249137;19;20021;-81
2022/12/20 08:21:57;;;;;;;6.00;4.38;;;7.70;64.00;;;6.31;64.33;101420.50;12251192;19;20464;-81
2022/12/20 08:26:01;;;;;;;4.68;3.95;;;7.70;63.70;;;6.31;64.46;101424.84;12252739;19;20015;-82
2022/12/20 08:30:06;;;;;;;5.20;3.55;;;7.80;63.60;;;6.32;64.58;101419.63;12252522;19;20019;-81
2022/12/20 08:34:09;;;;;;;6.47;3.83;;;7.80;63.50;;;6.38;64.38;101427.25;12247728;19;20021;-82
2022/12/20 08:38:10;;;;;;;5.00;3.95;;;7.80;63.40;;;6.33;64.54;101412.69;12252955;19;20038;-82
2022/12/20 08:42:12;;;;;;;4.68;3.60;;;7.90;63.40;;;6.45;64.56;101419.28;12253363;19;20038;-82
2022/12/20 08:46:14;;;;;;;6.47;4.15;;;7.90;63.50;;;6.46;64.65;101408.88;12253096;19;20014;-82
2022/12/20 08:50:16;;;;;;;7.18;4.45;;;7.90;63.60;;;6.45;64.61;101398.53;12251363;19;20011;-82
2022/12/20 08:54:17;;;;;;;6.95;3.80;;;7.90;63.90;;;6.56;64.64;101417.25;12253962;19;20381;-82
2022/12/20 08:58:20;;;;;;;4.40;3.22;;;7.90;64.00;;;6.51;64.61;101403.56;12272697;19;20019;-82
2022/12/20 09:02:22;;;;;;;4.22;3.35;;;8.00;63.90;;;6.13;64.63;101341.47;12263517;19;20078;-82
2022/12/20 09:06:24;;;;;;;7.35;4.57;;;8.00;63.80;;;6.39;64.45;101378.81;12249639;19;20052;-83
2022/12/20 09:10:26;;;;;;;6.55;4.22;;;8.10;63.90;;;6.51;64.53;101395.78;12250839;19;20028;-82
2022/12/20 09:14:28;;;;;;;6.85;4.07;;;8.10;64.00;;;6.63;64.51;101406.66;12246674;19;20015;-82
2022/12/20 09:18:30;;;;;;;6.80;5.20;;;8.10;64.10;;;6.75;64.76;101408.09;12248861;19;20467;-82
2022/12/20 09:22:32;;;;;;;7.78;5.70;;;8.20;64.40;;;6.80;64.57;101405.34;12251836;19;20017;-81
2022/12/20 09:26:34;;;;;;;12.18;8.73;;;8.20;64.70;;;6.92;64.88;101402.41;12252113;19;20019;-82
2022/12/20 09:30:36;;;;;;;9.68;7.40;;;8.30;65.10;;;6.95;65.01;101393.69;12250766;19;20044;-83
2022/12/20 09:34:38;;;;;;;15.32;9.32;;;8.40;65.80;;;6.91;64.92;101379.91;12248922;19;20025;-83
2022/12/20 09:38:40;;;;;;;8.73;5.85;;;8.40;66.10;;;7.02;64.80;101375.28;12249098;19;20023;-82
2022/12/20 09:42:42;;;;;;;7.57;5.45;;;8.60;66.40;;;7.16;64.77;101394.78;12250121;19;20006;-81
2022/12/20 09:46:53;;;;;;;13.50;8.18;;;8.60;65.90;;;7.19;64.92;101400.72;12247745;19;20449;-81
2022/12/20 09:51:09;;;;;;;16.95;9.93;;;8.60;65.60;;;7.25;65.03;101400.53;12248792;19;20015;-81
2022/12/20 09:55:37;;;;;;;10.80;7.13;;;8.70;65.80;;;7.31;64.86;101400.34;12249372;19;20013;-81
2022/12/20 09:59:41;;;;;;;10.40;7.07;;;8.80;66.00;;;7.41;65.03;101381.88;12248610;19;20021;-82
2022/12/20 10:03:43;;;;;;;13.32;8.48;;;8.90;66.30;;;7.53;65.16;101392.75;12250340;19;20011;-82
2022/12/20 10:08:08;;;;;;;10.25;7.80;;;8.90;67.00;;;7.50;64.89;101372.03;12248118;19;20003;-81
2022/12/20 10:12:26;;;;;;;;;;;9.00;67.00;;;7.68;65.05;101386.19;12247996;19;20018;-82
2022/12/20 10:16:45;;;;;;;8.65;5.68;;;9.10;67.30;;;7.69;64.88;101382.69;12258955;19;19960;-81
2022/12/20 10:21:26;;;;;;;15.85;9.35;;;9.20;66.90;;;7.82;65.06;101375.34;12260662;19;20009;-81
2022/12/20 10:25:32;;;;;;;15.73;9.38;;;9.30;67.50;;;7.92;64.97;101368.09;12258371;19;20070;-81
2022/12/20 10:29:34;;;;;;;;;;;9.40;67.40;;;7.97;65.12;101363.59;12260557;19;20610;-82
2022/12/20 10:33:35;;;;;;;9.82;6.35;;;9.40;67.90;;;8.12;64.98;101370.00;12258277;19;19919;-82
2022/12/20 10:37:37;;;;;;;12.02;7.45;;;9.50;67.30;;;8.14;65.01;101353.44;12257295;19;20378;-82
2022/12/20 10:41:39;;;;;;;20.55;10.75;;;9.60;67.70;;;8.25;65.21;101350.47;12259213;19;20023;-82
2022/12/20 10:45:43;;;;;;;13.95;8.27;;;9.60;67.60;;;8.32;65.19;101336.34;12259562;19;20060;-82
2022/12/20 10:49:44;;;;;;;16.45;8.35;;;9.80;67.40;;;8.28;65.41;101318.28;12259993;19;20007;-81
2022/12/20 10:53:58;;;;;;;14.27;8.50;;;9.80;67.70;;;8.34;65.31;101308.50;12257351;19;20452;-82
2022/12/20 10:58:26;;;;;;;14.93;8.88;;;9.80;67.50;;;8.50;65.18;101318.38;12254862;19;20034;-83
2022/12/20 11:02:35;;;;;;;16.27;9.93;;;9.90;68.20;;;8.55;65.12;101319.06;12258874;19;20010;-82
2022/12/20 11:06:36;;;;;;;14.40;9.95;;;10.00;67.90;;;8.64;65.42;101316.09;12254250;19;20487;-82
2022/12/20 11:10:38;;;;;;;13.00;9.02;;;10.00;68.10;;;8.66;65.39;101298.66;12258965;19;20368;-82
2022/12/20 11:14:44;;;;;;;11.82;8.25;;;10.10;68.10;;;8.61;65.18;101284.97;12251236;19;20026;-82
2022/12/20 11:19:07;;;;;;;8.85;6.72;;;10.10;67.70;;;8.77;65.28;101301.72;12252892;19;20019;-82
2022/12/20 11:23:40;;;;;;;11.65;7.50;;;10.20;67.70;;;8.68;65.18;101267.38;12256204;19;20010;-82
2022/12/20 11:28:10;;;;;;;10.65;6.57;;;10.20;67.20;;;8.85;65.30;101291.84;12255218;19;20613;-82
2022/12/20 11:32:45;;;;;;;12.77;8.15;;;10.50;67.40;;;8.87;65.35;101281.38;12257350;19;20066;-82
2022/12/20 11:37:08;;;;;;;13.82;8.18;;;10.30;67.30;;;8.90;65.44;101273.44;12254781;19;20504;-82
2022/12/20 11:41:43;;;;;;;12.20;7.70;;;10.30;67.20;;;8.83;65.36;101265.03;12256376;19;20010;-83
2022/12/20 11:46:05;;;;;;;11.73;6.93;;;10.20;66.60;;;8.94;65.21;101263.75;12253277;19;20018;-82
2022/12/20 11:50:29;;;;;;;12.20;7.57;;;10.40;66.60;;;8.99;65.46;101269.63;12257888;19;20013;-82
2022/12/20 11:54:42;;;;;;;15.23;9.77;;;10.40;66.60;;;8.97;65.28;101258.44;12253256;19;20006;-82
2022/12/20 11:59:10;;;;;;;13.02;8.25;;;10.40;66.60;;;9.02;65.36;101252.13;12249185;19;20006;-84
2022/12/20 12:03:36;;;;;;;15.23;9.27;;;10.40;66.40;;;8.97;65.33;101235.84;12256083;19;20021;-82
2022/12/20 12:07:41;;;;;;;16.25;9.07;;;10.40;66.30;;;8.95;65.36;101229.00;12252434;19;20046;-86
2022/12/20 12:12:04;;;;;;;13.43;7.85;;;10.40;66.10;;;9.01;65.34;101252.19;12254216;19;20019;-83
2022/12/20 12:16:26;;;;;;;16.60;8.73;;;10.40;65.90;;;8.92;65.23;101227.34;12253007;19;20027;-82
2022/12/20 12:21:04;;;;;;;12.98;8.48;;;10.40;65.90;;;9.06;65.40;101256.28;12253005;19;20014;-82
2022/12/20 12:25:14;;;;;;;13.57;8.38;;;10.40;65.60;;;8.85;65.18;101216.31;12254059;19;20489;-83
2022/12/20 12:29:18;;;;;;;13.32;8.27;;;10.40;65.40;;;9.03;65.05;101226.94;12250733;19;20025;-82
2022/12/20 12:33:36;;;;;;;15.43;8.95;;;10.40;65.20;;;9.07;65.24;101237.16;12251792;19;20031;-83
2022/12/20 12:38:13;;;;;;;15.35;8.30;;;10.40;65.10;;;9.06;65.27;101224.19;12249852;19;20078;-82
2022/12/20 12:42:50;;;;;;;15.15;9.43;;;10.40;64.90;;;9.04;65.23;101220.78;12249987;19;20014;-82
2022/12/20 12:47:05;;;;;;;13.52;9.07;;;10.40;65.00;;;8.87;65.23;101200.66;12250036;19;20006;-82
2022/12/20 12:51:08;;;;;;;15.00;9.77;;;10.40;64.80;;;8.90;65.35;101189.25;12246553;19;20013;-81
2022/12/20 12:55:44;;;;;;;14.20;9.00;;;10.40;64.70;;;8.95;65.18;101189.91;12249468;19;20032;-82
2022/12/20 12:59:50;;;;;;;12.90;8.85;;;10.40;64.80;;;9.02;65.15;101192.22;12250769;19;20017;-82
2022/12/20 13:03:51;;;;;;;13.13;8.05;;;10.40;64.80;;;9.05;65.12;101186.03;12254820;19;20025;-81
2022/12/20 13:07:54;;;;;;;15.57;10.15;;;10.30;64.80;;;8.93;65.09;101152.66;12252458;19;20010;-80
2022/12/20 13:11:57;;;;;;;15.02;10.10;;;10.40;64.60;;;9.01;65.04;101167.06;12250807;19;20078;-81
2022/12/20 13:16:09;;;;;;;14.13;8.52;;;10.40;64.50;;;9.00;64.99;101175.78;12253109;19;20575;-82
2022/12/20 13:20:24;;;;;;;17.02;10.85;;;10.30;64.30;;;8.97;65.05;101162.06;12253614;19;20030;-81
2022/12/20 13:24:47;;;;;;;14.23;8.68;;;10.30;64.30;;;8.98;64.96;101168.94;12252183;19;20010;-82
2022/12/20 13:28:48;;;;;;;12.35;8.52;;;10.30;64.20;;;8.95;65.17;101164.72;12252728;19;20022;-81
2022/12/20 13:32:50;;;;;;;14.68;9.77;;;10.30;64.10;;;8.98;65.22;101163.75;12255308;19;20007;-81
2022/12/20 13:36:58;;;;;;;15.93;9.68;;;10.30;64.00;;;8.89;65.19;101158.94;12252262;19;20723;-81
2022/12/20 13:41:00;;;;;;;13.30;8.05;;;10.30;64.50;;;8.94;65.14;101162.16;12254444;19;20014;-81
2022/12/20 13:45:05;;;;;;;14.70;9.90;;;10.30;64.00;;;8.87;65.10;101161.59;12253638;19;20037;-81
2022/12/20 13:49:21;;;;;;;14.73;9.07;;;10.30;63.90;;;8.96;65.07;101183.78;12251891;19;20014;-81
2022/12/20 13:53:26;;;;;;;12.98;8.15;;;10.20;63.70;;;8.91;65.03;101175.31;12251717;19;20002;-81
2022/12/20 13:57:42;;;;;;;12.00;7.35;;;10.30;63.70;;;8.89;64.91;101177.16;12253344;19;20471;-81
2022/12/20 14:01:57;;;;;;;14.57;9.53;;;10.30;63.50;;;8.84;64.75;101178.19;12257127;19;20011;-81
2022/12/20 14:06:07;;;;;;;16.42;9.90;;;10.20;63.10;;;8.79;65.05;101159.28;12255670;19;20045;-80
2022/12/20 14:10:24;;;;;;;20.40;10.80;;;10.20;62.90;;;8.85;64.79;101173.81;12254306;19;20348;-81
2022/12/20 14:14:25;;;;;;;14.65;8.93;;;10.20;62.80;;;8.89;65.00;101195.38;12254814;19;20006;-80
2022/12/20 14:18:27;;;;;;;15.20;9.80;;;10.20;62.90;;;8.87;65.02;101177.22;12251927;19;20010;-80
2022/12/20 14:22:29;;;;;;;17.35;9.43;;;10.20;62.80;;;8.57;64.75;101135.88;12255625;19;20090;-81
2022/12/20 14:26:52;;;;;;;16.67;9.20;;;10.20;62.70;;;8.43;64.80;101093.97;12252382;19;20022;-81
2022/12/20 14:30:57;;;;;;;18.48;10.73;;;10.10;62.50;;;8.75;65.04;101142.09;12251381;19;20505;-81
2022/12/20 14:34:59;;;;;;;16.05;9.75;;;10.10;62.30;;;8.75;64.98;101144.72;12249178;19;20116;-80
2022/12/20 14:39:23;;;;;;;15.02;9.13;;;10.00;62.30;;;8.73;64.84;101149.13;12251420;19;20480;-82
2022/12/20 14:43:33;;;;;;;16.40;9.98;;;10.10;62.30;;;8.62;64.63;101143.50;12256766;19;20044;-82
2022/12/20 14:47:37;;;;;;;19.48;10.82;;;10.00;62.10;;;8.62;64.80;101133.94;12253560;19;20378;-81
2022/12/20 14:51:39;;;;;;;16.50;10.10;;;10.00;61.70;;;8.64;64.67;101129.53;12253264;19;20017;-81
2022/12/20 14:55:45;;;;;;;17.15;10.02;;;9.90;61.60;;;8.54;64.57;101116.94;12250572;19;20052;-81
2022/12/20 15:00:22;;;;;;;17.92;10.73;;;9.90;61.60;;;8.55;64.72;101135.09;12256162;19;20006;-81
2022/12/20 15:04:29;;;;;;;15.32;9.23;;;9.90;61.30;;;8.62;64.67;101136.53;12269805;19;20011;-81
2022/12/20 15:08:32;;;;;;;17.98;9.95;;;9.90;61.60;;;8.53;64.71;101128.25;12268846;19;20007;-81
2022/12/20 15:12:34;;;;;;;30.55;12.60;;;9.90;61.70;;;8.57;64.71;101127.22;12267151;19;20015;-81
2022/12/20 15:16:44;;;;;;;22.17;12.07;;;9.90;61.50;;;8.53;64.56;101129.13;12265816;19;20014;-82
2022/12/20 15:21:03;;;;;;;28.38;13.50;;;9.90;61.30;;;8.50;64.63;101123.16;12269609;19;20011;-81
2022/12/20 15:25:18;;;;;;;27.75;13.18;;;9.80;61.10;;;8.48;64.57;101112.84;12269395;19;20371;-81
2022/12/20 15:29:27;;;;;;;28.05;14.65;;;9.80;60.50;;;8.47;64.50;101129.34;12262799;19;20006;-81
2022/12/20 15:33:33;;;;;;;23.75;12.30;;;9.80;60.60;;;8.44;64.65;101121.66;12264048;19;21576;-81
2022/12/20 15:37:34;;;;;;;26.92;13.45;;;9.80;60.90;;;8.38;64.47;101109.72;12265198;19;20512;-81
2022/12/20 15:41:39;;;;;;;29.00;13.65;;;9.70;60.70;;;8.18;64.47;101079.28;12266327;19;20021;-82
2022/12/20 15:45:43;;;;;;;18.27;11.53;;;9.70;60.80;;;8.40;64.52;101114.91;12264836;19;20110;-81
2022/12/20 15:49:45;;;;;;;18.27;10.67;;;9.70;60.70;;;8.33;64.42;101090.00;12265051;19;20015;-82
2022/12/20 15:53:47;;;;;;;16.17;10.43;;;9.70;60.60;;;8.20;64.39;101081.81;12266812;19;20010;-82
2022/12/20 15:57:48;;;;;;;20.20;11.55;;;9.60;60.70;;;8.33;64.50;101100.41;12264189;19;20046;-81
2022/12/20 16:01:50;;;;;;;16.02;9.80;;;9.60;60.40;;;8.24;64.46;101098.16;12263219;19;20006;-81
2022/12/20 16:05:51;;;;;;;19.98;11.48;;;9.60;60.70;;;8.15;64.50;101082.00;12262259;19;20453;-81
2022/12/20 16:09:53;;;;;;;20.10;12.05;;;9.50;60.40;;;8.23;64.28;101091.25;12260860;19;20023;-82
2022/12/20 16:13:57;;;;;;;17.25;10.18;;;9.50;60.30;;;8.17;64.34;101074.13;12261691;19;20283;-81
2022/12/20 16:17:59;;;;;;;19.02;10.68;;;9.50;60.50;;;8.20;64.36;101085.25;12262279;19;20010;-81
2022/12/20 16:22:00;;;;;;;18.88;10.05;;;9.50;60.40;;;8.18;64.12;101089.69;12269097;19;20007;-82
2022/12/20 16:26:02;;;;;;;17.17;10.95;;;9.50;60.40;;;8.11;64.22;101074.38;12265436;19;20423;-81
2022/12/20 16:30:05;;;;;;;17.38;10.73;;;9.40;60.10;;;8.06;64.35;101063.31;12267069;19;20019;-82
2022/12/20 16:34:16;;;;;;;19.65;11.85;;;9.40;60.00;;;7.98;64.19;101061.00;12262575;19;20085;-81
2022/12/20 16:38:18;;;;;;;19.52;12.57;;;9.40;59.90;;;8.08;64.37;101069.31;12256452;19;20082;-83
2022/12/20 16:42:20;;;;;;;20.52;11.60;;;9.30;59.90;;;7.94;64.25;101055.09;12268531;19;20022;-82
2022/12/20 16:46:26;;;;;;;33.60;16.33;;;9.40;60.10;;;8.02;64.28;101060.00;12250692;19;20024;-82
2022/12/20 16:50:27;;;;;;;33.40;16.67;;;9.30;60.10;;;8.05;64.38;101062.47;12253848;19;20023;-81
2022/12/20 16:54:29;;;;;;;22.67;12.93;;;9.30;59.80;;;8.05;64.13;101072.03;12252501;19;20006;-81
2022/12/20 16:58:31;;;;;;;24.38;13.55;;;9.30;59.70;;;8.02;64.34;101051.31;12247931;19;20019;-81
2022/12/20 17:02:33;;;;;;;22.33;11.50;;;9.30;59.60;;;7.90;64.18;101048.31;12255213;19;20055;-81
2022/12/20 17:06:35;;;;;;;17.08;10.07;;;9.20;59.70;;;7.98;64.27;101055.81;12258443;19;20038;-81
2022/12/20 17:10:36;;;;;;;20.45;11.68;;;9.20;60.10;;;7.88;64.17;101049.25;12261569;19;20480;-81
2022/12/20 17:14:38;;;;;;;23.17;13.55;;;9.20;59.60;;;7.83;64.00;101033.88;12259172;19;20503;-82
2022/12/20 17:18:42;;;;;;;20.48;12.15;;;9.20;59.40;;;7.63;64.07;100999.97;12257288;19;20021;-81